Curta nossa página no facebook!

Fonia SBBI by Lucas Gabardo

Siga Nosso Instagram

Calendário do mês

Condições Meteorológicas SBCT

METAR atual do SBCT
SBCT 030200Z 05003KT 9999 -RA BKN009 SCT015 OVC030 13/12 Q1020

Condições Meteorológicas SBBI

METAR atual do SBBI
SBBI 030100Z 04005KT 9999 FEW003 BKN005 OVC008 14/12 Q1020

Seguem algumas fotos da movimentação no Afonso Pena no final de maio e primeira metade de junho!

Destaques para o Legacy 500, Cargolux pintura nova e 727 da Rio!

 

Não deixe de mandar suas fotos para contato@tmacuritiba.com.br !

Neste post vocês conferem como foi o mês de Maio no SBBI. Tivemos alguns eventos em Curitiba, como uma etapa da Stock Car e o Country Festival, por exemplo, que trouxeram algumas aeronaves bem bacanas para o Bacacheri. Confira abaixo as fotos de toda essa movimentação!

 

 

Não esqueça de nos enviar os seus registros para o nosso e-mail!

Para o calendário de Junho nós resgatamos uma foto dos nossos arquivos antigos, para fazer uma homenagem aos spotters curitibanos. Esse é o cockpit do Boeing 767-281F PR-IOH, da Rio Linhas Aéreas, que nesse semestre fez seu último voo partindo do SBCT para ser devolvido. Infelizmente tudo indica que não iremos mais ver essa bela ave por aqui.

Junho2015-650px

Resoluções Disponíveis: 1280×800 | 1366×768 | 1440×900 | 1680×1024 | 1920×1200